createdAt,value
2019-02-19T00:01:15.463Z,4.10
2019-02-19T00:03:45.361Z,4.10
2019-02-19T00:06:15.289Z,4.00
2019-02-19T00:08:45.227Z,3.90
2019-02-19T00:11:15.153Z,3.90
2019-02-19T00:13:45.025Z,3.80
2019-02-19T00:16:14.963Z,3.70
2019-02-19T00:18:44.809Z,3.90
2019-02-19T00:21:14.678Z,3.90
2019-02-19T00:23:44.604Z,3.90
2019-02-19T00:26:13.402Z,3.80
2019-02-19T00:29:02.677Z,3.70
2019-02-19T00:31:32.630Z,3.50
2019-02-19T00:34:02.554Z,3.60
2019-02-19T00:36:32.419Z,3.70
2019-02-19T00:39:02.280Z,3.60
2019-02-19T00:41:33.642Z,3.50
2019-02-19T00:44:03.488Z,3.50
2019-02-19T00:46:33.357Z,3.50
2019-02-19T00:49:03.224Z,3.50
2019-02-19T00:51:33.176Z,3.50
2019-02-19T00:54:03.104Z,3.40
2019-02-19T00:56:33.045Z,3.40
2019-02-19T00:59:02.960Z,3.30
2019-02-19T01:01:32.830Z,3.30
2019-02-19T01:04:02.703Z,3.30
2019-02-19T01:06:32.553Z,3.20
2019-02-19T01:09:02.420Z,3.10
2019-02-19T01:11:32.856Z,3.10
2019-02-19T01:14:02.792Z,3.10
2019-02-19T01:16:32.661Z,3.20
2019-02-19T01:19:02.592Z,3.40
2019-02-19T01:21:32.450Z,3.20
2019-02-19T01:24:02.359Z,3.10
2019-02-19T01:26:33.104Z,3.00
2019-02-19T01:29:03.052Z,2.90
2019-02-19T01:31:33.005Z,2.80
2019-02-19T01:34:02.854Z,2.70
2019-02-19T01:36:33.789Z,2.70
2019-02-19T01:39:04.627Z,2.70
2019-02-19T01:41:35.612Z,2.80
2019-02-19T01:44:05.480Z,2.90
2019-02-19T01:46:35.327Z,2.90
2019-02-19T01:49:05.194Z,2.90
2019-02-19T01:51:35.070Z,2.70
2019-02-19T01:54:05.063Z,2.70
2019-02-19T01:56:35.573Z,2.70
2019-02-19T01:59:05.576Z,2.60
2019-02-19T02:01:35.453Z,2.60
2019-02-19T02:04:05.376Z,2.60
2019-02-19T02:06:35.260Z,2.60
2019-02-19T02:09:05.337Z,2.70
2019-02-19T02:11:36.334Z,2.70
2019-02-19T02:14:06.226Z,2.60
2019-02-19T02:16:36.086Z,2.60
2019-02-19T02:19:06.020Z,2.60
2019-02-19T02:21:36.884Z,2.60
2019-02-19T02:24:06.781Z,2.60
2019-02-19T02:26:36.678Z,2.60
2019-02-19T02:29:06.620Z,2.50
2019-02-19T02:31:36.496Z,2.60
2019-02-19T02:34:06.349Z,2.70
2019-02-19T02:36:36.282Z,2.80
2019-02-19T02:39:06.573Z,2.70
2019-02-19T02:41:36.442Z,2.60
2019-02-19T02:44:06.304Z,2.50
2019-02-19T02:46:36.168Z,2.50
2019-02-19T02:49:06.017Z,2.50
2019-02-19T02:51:35.961Z,2.50
2019-02-19T02:54:05.841Z,2.40
2019-02-19T02:56:35.755Z,2.40
2019-02-19T02:59:05.700Z,2.40
2019-02-19T03:01:35.573Z,2.40
2019-02-19T03:04:05.544Z,2.50
2019-02-19T03:06:39.982Z,2.50
2019-02-19T03:09:09.837Z,2.40
2019-02-19T03:11:39.717Z,2.40
2019-02-19T03:14:09.580Z,2.40
2019-02-19T03:16:39.468Z,2.40
2019-02-19T03:19:09.400Z,2.40
2019-02-19T03:21:39.285Z,2.40
2019-02-19T03:24:09.237Z,2.40
2019-02-19T03:26:39.828Z,2.30
2019-02-19T03:29:09.840Z,2.30
2019-02-19T03:31:39.776Z,2.30
2019-02-19T03:34:09.725Z,2.20
2019-02-19T03:36:39.657Z,2.30
2019-02-19T03:39:09.521Z,2.40
2019-02-19T03:41:39.431Z,2.40
2019-02-19T03:44:09.374Z,2.30
2019-02-19T03:46:39.308Z,2.20
2019-02-19T03:49:09.174Z,2.20
2019-02-19T03:51:39.120Z,2.20
2019-02-19T03:54:09.048Z,2.20
2019-02-19T03:56:38.994Z,2.10
2019-02-19T03:59:08.859Z,2.00
2019-02-19T04:01:38.848Z,2.00
2019-02-19T04:04:08.712Z,1.80
2019-02-19T04:06:38.562Z,1.80
2019-02-19T04:09:08.518Z,1.80
2019-02-19T04:11:38.457Z,1.80
2019-02-19T04:14:08.300Z,1.80
2019-02-19T04:16:38.197Z,1.80
2019-02-19T04:19:08.145Z,1.80
2019-02-19T04:21:38.083Z,1.80
2019-02-19T04:24:07.949Z,1.80
2019-02-19T04:26:37.869Z,1.80
2019-02-19T04:29:07.802Z,1.80
2019-02-19T04:31:37.682Z,1.80
2019-02-19T04:34:07.607Z,1.80
2019-02-19T04:36:37.525Z,1.80
2019-02-19T04:39:07.390Z,1.80
2019-02-19T04:41:37.252Z,1.90
2019-02-19T04:44:07.091Z,1.80
2019-02-19T04:46:36.957Z,1.80
2019-02-19T04:49:06.891Z,1.80
2019-02-19T04:51:36.770Z,1.80
2019-02-19T04:54:06.684Z,1.90
2019-02-19T04:56:36.535Z,1.90
2019-02-19T04:59:06.390Z,1.80
2019-02-19T05:01:36.328Z,1.80
2019-02-19T05:04:06.337Z,1.80
2019-02-19T05:06:36.258Z,1.90
2019-02-19T05:09:06.766Z,1.80
2019-02-19T05:11:36.634Z,1.70
2019-02-19T05:14:06.568Z,1.80
2019-02-19T05:16:40.691Z,1.80
2019-02-19T05:19:08.099Z,1.70
2019-02-19T05:21:38.032Z,1.70
2019-02-19T05:24:07.888Z,1.80
2019-02-19T05:26:37.826Z,1.80
2019-02-19T05:29:07.753Z,1.80
2019-02-19T05:31:37.647Z,1.80
2019-02-19T05:34:08.385Z,1.90
2019-02-19T05:36:38.354Z,1.90
2019-02-19T05:39:08.296Z,1.90
2019-02-19T05:41:38.294Z,1.90
2019-02-19T05:44:08.452Z,1.90
2019-02-19T05:46:38.400Z,1.80
2019-02-19T05:49:08.246Z,1.70
2019-02-19T05:51:38.265Z,1.70
2019-02-19T05:54:08.541Z,1.80
2019-02-19T05:56:38.419Z,2.00
2019-02-19T05:59:08.272Z,2.10
2019-02-19T06:01:38.303Z,2.10
2019-02-19T06:04:08.257Z,2.10
2019-02-19T06:06:38.206Z,2.00
2019-02-19T06:09:08.165Z,2.10
2019-02-19T06:11:38.085Z,2.10
2019-02-19T06:14:10.432Z,2.20
2019-02-19T06:16:40.708Z,2.10
2019-02-19T06:19:10.845Z,2.20
2019-02-19T06:21:40.712Z,2.20
2019-02-19T06:24:10.560Z,2.30
2019-02-19T06:26:40.715Z,2.40
2019-02-19T06:29:10.558Z,2.50
2019-02-19T06:31:40.424Z,2.60
2019-02-19T06:34:10.330Z,2.60
2019-02-19T06:36:40.267Z,2.60
2019-02-19T06:39:10.139Z,2.60
2019-02-19T06:41:40.007Z,2.60
2019-02-19T06:44:11.098Z,2.80
2019-02-19T06:46:41.028Z,2.90
2019-02-19T06:49:10.975Z,3.00
2019-02-19T06:51:40.904Z,3.10
2019-02-19T06:54:10.772Z,3.10
2019-02-19T06:56:40.732Z,3.10
2019-02-19T06:59:10.578Z,3.20
2019-02-19T07:01:44.789Z,3.20
2019-02-19T07:04:19.287Z,3.20
2019-02-19T07:06:50.373Z,3.20
2019-02-19T07:09:20.316Z,3.30
2019-02-19T07:11:50.264Z,3.40
2019-02-19T07:14:20.202Z,3.60
2019-02-19T07:16:50.364Z,3.70
2019-02-19T07:19:20.300Z,3.90
2019-02-19T07:21:50.340Z,4.00
2019-02-19T07:24:20.392Z,4.30
2019-02-19T07:26:50.332Z,4.60
2019-02-19T07:29:20.306Z,4.90
2019-02-19T07:31:50.251Z,5.10
2019-02-19T07:34:20.119Z,5.30
2019-02-19T07:36:49.991Z,5.60
2019-02-19T07:39:19.946Z,5.90
2019-02-19T07:41:49.873Z,6.20
2019-02-19T07:44:19.920Z,6.30
2019-02-19T07:46:49.804Z,6.40
2019-02-19T07:49:19.715Z,6.50
2019-02-19T07:51:49.588Z,6.60
2019-02-19T07:54:19.523Z,6.60
2019-02-19T07:56:49.496Z,6.70
2019-02-19T07:59:19.457Z,6.80
2019-02-19T08:01:49.379Z,6.90
2019-02-19T08:04:19.316Z,7.00
2019-02-19T08:06:49.261Z,7.10
2019-02-19T08:09:19.124Z,7.40
2019-02-19T08:11:49.288Z,7.60
2019-02-19T08:14:19.295Z,7.70
2019-02-19T08:16:49.172Z,7.90
2019-02-19T08:19:19.107Z,8.30
2019-02-19T08:21:48.983Z,8.70
2019-02-19T08:24:18.924Z,9.00
2019-02-19T08:26:48.855Z,9.40
2019-02-19T08:29:18.727Z,9.90
2019-02-19T08:31:48.623Z,10.30
2019-02-19T08:34:18.568Z,10.20
2019-02-19T08:36:48.511Z,10.00
2019-02-19T08:39:18.459Z,10.20
2019-02-19T08:41:48.348Z,10.20
2019-02-19T08:44:18.214Z,10.20
2019-02-19T08:46:48.192Z,10.70
2019-02-19T08:49:18.188Z,11.80
2019-02-19T08:51:55.829Z,13.40
2019-02-19T08:54:19.664Z,14.50
2019-02-19T08:56:49.545Z,15.70
2019-02-19T08:59:19.560Z,16.80
2019-02-19T09:01:49.423Z,17.70
2019-02-19T09:04:19.381Z,18.50
2019-02-19T09:06:49.318Z,19.20
2019-02-19T09:09:19.277Z,19.50
2019-02-19T09:11:49.143Z,19.30
2019-02-19T09:14:19.092Z,19.20
2019-02-19T09:16:48.968Z,19.50
2019-02-19T09:19:18.833Z,20.20
2019-02-19T09:21:48.713Z,20.70
2019-02-19T09:24:18.650Z,19.90
2019-02-19T09:26:48.630Z,19.10
2019-02-19T09:29:18.557Z,18.20
2019-02-19T09:31:48.488Z,17.10
2019-02-19T09:34:18.444Z,16.40
2019-02-19T09:36:48.376Z,15.70
2019-02-19T09:39:18.281Z,15.60
2019-02-19T09:41:48.208Z,15.50
2019-02-19T09:44:18.212Z,15.40
2019-02-19T09:46:48.080Z,15.30
2019-02-19T09:49:17.988Z,15.00
2019-02-19T09:51:47.895Z,14.80
2019-02-19T09:54:17.803Z,14.40
2019-02-19T09:56:47.671Z,13.90
2019-02-19T09:59:17.626Z,14.30
2019-02-19T10:01:47.589Z,14.70
2019-02-19T10:04:17.538Z,14.90
2019-02-19T10:06:47.477Z,14.80
2019-02-19T10:09:17.429Z,14.50
2019-02-19T10:11:47.344Z,14.10
2019-02-19T10:14:17.272Z,13.80
2019-02-19T10:16:47.212Z,13.40
2019-02-19T10:19:17.199Z,13.00
2019-02-19T10:21:47.039Z,12.70
2019-02-19T10:24:16.973Z,12.40
2019-02-19T10:26:46.863Z,12.20
2019-02-19T10:29:16.814Z,11.90
2019-02-19T10:31:48.541Z,11.70
2019-02-19T10:34:18.661Z,11.60
2019-02-19T10:36:53.051Z,11.40
2019-02-19T10:39:23.005Z,11.40
2019-02-19T10:41:53.069Z,11.50
2019-02-19T10:44:23.129Z,11.60
2019-02-19T10:46:53.067Z,11.80
2019-02-19T10:49:22.951Z,12.30
2019-02-19T10:51:53.658Z,12.70
2019-02-19T10:54:23.807Z,13.30
2019-02-19T10:56:53.658Z,13.60
2019-02-19T10:59:23.520Z,13.50
2019-02-19T11:01:53.380Z,13.50
2019-02-19T11:04:23.323Z,13.50
2019-02-19T11:06:53.243Z,13.40
2019-02-19T11:09:23.184Z,13.40
2019-02-19T11:11:53.029Z,13.40
2019-02-19T11:14:22.979Z,13.30
2019-02-19T11:16:52.917Z,13.10
2019-02-19T11:19:22.849Z,12.70
2019-02-19T11:21:52.809Z,12.50
2019-02-19T11:24:22.737Z,12.40
2019-02-19T11:26:53.689Z,12.40
2019-02-19T11:29:23.608Z,12.10
2019-02-19T11:31:53.543Z,12.10
2019-02-19T11:34:23.396Z,11.90
2019-02-19T11:36:53.301Z,11.80
2019-02-19T11:39:23.215Z,11.80
2019-02-19T11:41:53.078Z,11.80
2019-02-19T11:44:23.002Z,11.70
2019-02-19T11:46:52.951Z,11.60
2019-02-19T11:49:22.873Z,11.50
2019-02-19T11:51:52.771Z,11.50
2019-02-19T11:54:22.708Z,11.40
2019-02-19T11:56:52.542Z,11.40
2019-02-19T11:59:23.582Z,11.30
2019-02-19T12:01:53.708Z,11.20
2019-02-19T12:04:23.619Z,11.20
2019-02-19T12:06:53.530Z,11.10
2019-02-19T12:09:23.404Z,11.00
2019-02-19T12:11:53.340Z,11.00
2019-02-19T12:14:23.198Z,11.00
2019-02-19T12:16:53.334Z,11.00
2019-02-19T12:19:23.262Z,10.90
2019-02-19T12:21:53.204Z,10.90
2019-02-19T12:24:23.060Z,11.00
2019-02-19T12:26:52.995Z,11.10
2019-02-19T12:29:22.857Z,11.20
2019-02-19T12:31:52.804Z,11.40
2019-02-19T12:34:22.782Z,11.50
2019-02-19T12:36:52.668Z,11.50
2019-02-19T12:39:22.619Z,11.50
2019-02-19T12:41:52.538Z,11.50
2019-02-19T12:44:22.489Z,11.70
2019-02-19T12:46:52.414Z,11.80
2019-02-19T12:49:22.361Z,11.70
2019-02-19T12:51:52.276Z,11.60
2019-02-19T12:54:22.256Z,11.60
2019-02-19T12:56:52.174Z,11.50
2019-02-19T12:59:22.123Z,11.60
2019-02-19T13:01:52.006Z,11.60
2019-02-19T13:04:21.959Z,11.80
2019-02-19T13:06:51.814Z,11.90
2019-02-19T13:09:21.687Z,12.10
2019-02-19T13:11:51.631Z,12.20
2019-02-19T13:14:21.570Z,12.10
2019-02-19T13:16:51.513Z,12.00
2019-02-19T13:19:22.425Z,11.80
2019-02-19T13:21:52.359Z,11.70
2019-02-19T13:24:22.271Z,11.70
2019-02-19T13:26:52.360Z,11.80
2019-02-19T13:29:22.217Z,11.70
2019-02-19T13:31:52.144Z,11.60
2019-02-19T13:34:22.018Z,11.50
2019-02-19T13:36:51.931Z,11.40
2019-02-19T13:39:21.831Z,11.40
2019-02-19T13:41:51.744Z,11.20
2019-02-19T13:44:21.626Z,11.10
2019-02-19T13:46:51.558Z,11.00
2019-02-19T13:49:22.457Z,11.00
2019-02-19T13:51:54.040Z,10.90
2019-02-19T13:54:25.355Z,10.80
2019-02-19T13:56:55.239Z,10.70
2019-02-19T13:59:25.149Z,10.60
2019-02-19T14:01:55.120Z,10.50
2019-02-19T14:04:25.041Z,10.50
2019-02-19T14:06:54.915Z,10.40
2019-02-19T14:09:24.751Z,10.30
2019-02-19T14:11:54.627Z,10.30
2019-02-19T14:14:29.207Z,10.40
2019-02-19T14:17:00.223Z,10.40
2019-02-19T14:19:37.610Z,10.40
2019-02-19T14:22:27.351Z,10.30
2019-02-19T14:25:04.532Z,10.30
2019-02-19T14:27:38.620Z,10.30
2019-02-19T14:30:15.324Z,10.30
2019-02-19T14:32:53.076Z,10.20
2019-02-19T14:35:27.321Z,10.20
2019-02-19T14:38:17.421Z,10.10
2019-02-19T14:40:59.168Z,10.20
2019-02-19T14:43:30.659Z,10.20
2019-02-19T14:46:17.060Z,10.30
2019-02-19T14:48:54.825Z,10.30
2019-02-19T14:51:38.370Z,10.30
2019-02-19T14:54:15.693Z,10.20
2019-02-19T14:56:50.178Z,10.20
2019-02-19T14:59:24.507Z,10.30
2019-02-19T15:02:14.335Z,10.30
2019-02-19T15:05:02.270Z,10.20
2019-02-19T15:07:33.863Z,10.20
2019-02-19T15:10:15.623Z,10.10
2019-02-19T15:13:05.230Z,10.00
2019-02-19T15:15:36.801Z,10.00
2019-02-19T15:18:23.451Z,9.90
2019-02-19T15:20:57.874Z,9.90
2019-02-19T15:23:41.744Z,9.90
2019-02-19T15:26:19.327Z,9.90
2019-02-19T15:28:53.589Z,10.00
2019-02-19T15:31:25.164Z,10.00
2019-02-19T15:34:15.360Z,10.00
2019-02-19T15:36:59.080Z,10.00
2019-02-19T15:39:36.199Z,10.00
2019-02-19T15:42:13.661Z,9.90
2019-02-19T15:44:45.279Z,9.80
2019-02-19T15:47:35.228Z,9.70
2019-02-19T15:50:07.659Z,9.70
2019-02-19T15:52:39.252Z,9.60
2019-02-19T15:55:26.778Z,9.60
2019-02-19T15:58:10.335Z,9.60
2019-02-19T16:00:41.897Z,9.50
2019-02-19T16:03:26.613Z,9.40
2019-02-19T16:06:13.216Z,9.40
2019-02-19T16:08:47.829Z,9.30
2019-02-19T16:11:28.414Z,9.30
2019-02-19T16:13:59.915Z,9.20
2019-02-19T16:16:37.105Z,9.10
2019-02-19T16:19:24.967Z,9.10
2019-02-19T16:22:11.304Z,9.10
2019-02-19T16:24:48.614Z,9.10
2019-02-19T16:27:28.873Z,9.10
2019-02-19T16:30:00.400Z,9.10
2019-02-19T16:32:31.957Z,9.10
2019-02-19T16:35:12.261Z,9.10
2019-02-19T16:37:46.952Z,9.10
2019-02-19T16:40:18.545Z,9.00
2019-02-19T16:42:59.168Z,9.00
2019-02-19T16:45:33.613Z,8.90
2019-02-19T16:48:21.677Z,8.80
2019-02-19T16:50:53.342Z,8.80
2019-02-19T16:53:31.378Z,8.70
2019-02-19T16:56:13.247Z,8.60
2019-02-19T16:58:44.847Z,8.60
2019-02-19T17:01:16.447Z,8.50
2019-02-19T17:03:54.181Z,8.40
2019-02-19T17:06:37.454Z,8.30
2019-02-19T17:09:15.402Z,8.30
2019-02-19T17:11:59.039Z,8.30
2019-02-19T17:14:47.157Z,8.30
2019-02-19T17:17:34.034Z,8.20
2019-02-19T17:20:28.230Z,8.10
2019-02-19T17:22:51.272Z,8.20
2019-02-19T17:25:28.794Z,8.10
2019-02-19T17:28:00.405Z,8.00
2019-02-19T17:30:41.234Z,7.90
2019-02-19T17:33:16.551Z,7.90
2019-02-19T17:35:48.140Z,7.80
2019-02-19T17:38:25.428Z,7.70
2019-02-19T17:41:03.436Z,7.60
2019-02-19T17:43:36.036Z,7.60
2019-02-19T17:46:07.620Z,7.60
2019-02-19T17:48:42.076Z,7.50
2019-02-19T17:51:16.623Z,7.40
2019-02-19T17:53:54.340Z,7.40
2019-02-19T17:56:25.830Z,7.30
2019-02-19T17:59:09.432Z,7.30
2019-02-19T18:01:41.006Z,7.20
2019-02-19T18:04:15.439Z,7.20
2019-02-19T18:06:47.086Z,7.10
2019-02-19T18:09:35.246Z,7.10
2019-02-19T18:12:06.841Z,7.10
2019-02-19T18:14:56.551Z,6.90
2019-02-19T18:20:12.744Z,6.80
2019-02-19T18:22:42.617Z,6.80
2019-02-19T18:25:12.542Z,6.80
2019-02-19T18:27:42.479Z,6.80
2019-02-19T18:30:12.417Z,6.90
2019-02-19T18:32:42.336Z,6.90
2019-02-19T18:35:12.197Z,7.00
2019-02-19T18:37:42.316Z,7.00
2019-02-19T18:40:12.178Z,7.00
2019-02-19T18:42:42.642Z,6.90
2019-02-19T18:45:12.564Z,6.90
2019-02-19T18:47:42.508Z,6.90
2019-02-19T18:50:12.371Z,7.00
2019-02-19T18:52:42.322Z,7.00
2019-02-19T18:55:12.254Z,7.00
2019-02-19T18:57:42.747Z,7.00
2019-02-19T19:00:13.590Z,7.00
2019-02-19T19:02:43.588Z,6.90
2019-02-19T19:05:13.634Z,6.80
2019-02-19T19:07:43.596Z,6.60
2019-02-19T19:10:13.533Z,6.50
2019-02-19T19:12:43.473Z,6.40
2019-02-19T19:15:14.456Z,6.30
2019-02-19T19:17:44.417Z,6.30
2019-02-19T19:20:14.267Z,6.20
2019-02-19T19:22:44.150Z,6.10
2019-02-19T19:25:14.111Z,6.10
2019-02-19T19:27:44.109Z,6.00
2019-02-19T19:30:15.493Z,6.00
2019-02-19T19:32:45.441Z,5.90
2019-02-19T19:35:16.625Z,5.80
2019-02-19T19:37:46.769Z,5.80
2019-02-19T19:40:16.777Z,5.80
2019-02-19T19:42:46.676Z,5.70
2019-02-19T19:45:16.558Z,5.70
2019-02-19T19:47:46.496Z,5.70
2019-02-19T19:50:16.505Z,5.80
2019-02-19T19:52:47.788Z,5.80
2019-02-19T19:55:17.788Z,5.70
2019-02-19T19:57:47.787Z,5.60
2019-02-19T20:00:17.904Z,5.50
2019-02-19T20:02:49.278Z,5.60
2019-02-19T20:05:19.204Z,5.40
2019-02-19T20:07:49.072Z,5.40
2019-02-19T20:10:19.025Z,5.30
2019-02-19T20:12:48.967Z,5.30
2019-02-19T20:15:19.175Z,5.30
2019-02-19T20:17:49.109Z,5.20
2019-02-19T20:20:19.084Z,5.20
2019-02-19T20:22:49.101Z,4.80
2019-02-19T20:25:19.002Z,5.10
2019-02-19T20:27:48.900Z,5.10
2019-02-19T20:30:18.916Z,5.10
2019-02-19T20:32:48.959Z,5.10
2019-02-19T20:35:18.981Z,5.00
2019-02-19T20:37:54.050Z,5.00
2019-02-19T20:40:20.555Z,5.10
2019-02-19T20:42:51.420Z,5.20
2019-02-19T20:45:21.373Z,5.20
2019-02-19T20:47:51.241Z,5.30
2019-02-19T20:50:21.353Z,5.30
2019-02-19T20:52:51.232Z,5.30
2019-02-19T20:55:21.106Z,5.30
2019-02-19T20:57:51.054Z,5.30
2019-02-19T21:00:20.988Z,5.20
2019-02-19T21:02:52.439Z,5.20
2019-02-19T21:05:22.311Z,5.20
2019-02-19T21:07:53.278Z,5.00
2019-02-19T21:10:23.179Z,5.00
2019-02-19T21:12:53.199Z,5.00
2019-02-19T21:15:23.132Z,4.90
2019-02-19T21:17:53.083Z,4.80
2019-02-19T21:20:23.014Z,4.80
2019-02-19T21:22:53.945Z,4.70
2019-02-19T21:25:30.778Z,4.70
2019-02-19T21:27:55.565Z,4.60
2019-02-19T21:30:25.566Z,4.60
2019-02-19T21:32:55.517Z,4.60
2019-02-19T21:35:25.452Z,4.50
2019-02-19T21:37:55.325Z,4.50
2019-02-19T21:40:25.267Z,4.50
2019-02-19T21:42:55.305Z,4.50
2019-02-19T21:45:25.247Z,4.40
2019-02-19T21:47:55.136Z,4.30
2019-02-19T21:50:25.076Z,4.20
2019-02-19T21:52:55.422Z,4.20
2019-02-19T21:55:26.320Z,4.20
2019-02-19T21:57:56.277Z,4.10
2019-02-19T22:00:26.195Z,4.10
2019-02-19T22:02:56.371Z,4.10
2019-02-19T22:05:26.314Z,4.10
2019-02-19T22:07:56.599Z,4.00
2019-02-19T22:10:26.544Z,3.90
2019-02-19T22:12:56.486Z,3.90
2019-02-19T22:15:26.459Z,3.90
2019-02-19T22:17:56.409Z,3.90
2019-02-19T22:20:37.133Z,3.80
2019-02-19T22:23:07.435Z,3.70
2019-02-19T22:25:37.369Z,3.80
2019-02-19T22:28:07.254Z,3.70
2019-02-19T22:30:37.230Z,3.60
2019-02-19T22:33:07.164Z,3.70
2019-02-19T22:35:37.036Z,3.70
2019-02-19T22:38:06.976Z,3.70
2019-02-19T22:40:36.861Z,3.70
2019-02-19T22:43:06.825Z,3.70
2019-02-19T22:45:36.750Z,3.60
2019-02-19T22:48:06.695Z,3.50
2019-02-19T22:50:36.668Z,3.50
2019-02-19T22:53:08.235Z,3.40
2019-02-19T22:55:52.515Z,3.40
2019-02-19T22:58:22.417Z,3.40
2019-02-19T23:00:58.331Z,3.30
2019-02-19T23:03:29.462Z,3.30
2019-02-19T23:05:59.408Z,3.30
2019-02-19T23:08:29.273Z,3.20
2019-02-19T23:10:59.234Z,3.20
2019-02-19T23:13:29.101Z,3.20
2019-02-19T23:15:59.040Z,3.10
2019-02-19T23:18:29.285Z,3.10
2019-02-19T23:20:59.230Z,3.10
2019-02-19T23:23:29.083Z,3.00
2019-02-19T23:25:58.964Z,3.00
2019-02-19T23:28:28.906Z,3.10
2019-02-19T23:30:58.823Z,3.00
2019-02-19T23:33:28.764Z,3.00
2019-02-19T23:36:09.036Z,3.00
2019-02-19T23:38:38.971Z,3.00
2019-02-19T23:41:08.930Z,3.00
2019-02-19T23:43:38.862Z,3.00
2019-02-19T23:46:08.722Z,2.90
2019-02-19T23:48:38.670Z,2.90
2019-02-19T23:51:08.544Z,2.80
2019-02-19T23:53:38.420Z,2.90
2019-02-19T23:56:08.353Z,2.80
2019-02-19T23:58:38.209Z,2.80
